createdAt,value
2023-02-14T00:00:01.541Z,75.00
2023-02-14T00:00:33.244Z,74.67
2023-02-14T00:01:12.640Z,74.00
2023-02-14T00:01:45.708Z,73.33
2023-02-14T00:02:17.952Z,73.00
2023-02-14T00:02:49.794Z,73.00
2023-02-14T00:03:21.517Z,71.67
2023-02-14T00:03:54.602Z,71.00
2023-02-14T00:04:26.383Z,70.00
2023-02-14T00:04:58.206Z,69.00
2023-02-14T00:05:29.946Z,67.67
2023-02-14T00:06:07.115Z,66.33
2023-02-14T00:06:39.848Z,65.67
2023-02-14T00:07:11.794Z,65.00
2023-02-14T00:07:43.587Z,65.00
2023-02-14T00:08:16.023Z,64.00
2023-02-14T00:08:47.706Z,64.00
2023-02-14T00:09:20.616Z,63.67
2023-02-14T00:09:52.269Z,63.00
2023-02-14T00:10:23.946Z,63.00
2023-02-14T00:10:55.611Z,63.00
2023-02-14T00:11:27.320Z,62.33
2023-02-14T00:11:59.004Z,62.00
2023-02-14T00:12:30.640Z,62.00
2023-02-14T00:13:02.302Z,62.00
2023-02-14T00:13:34.227Z,62.67
2023-02-14T00:14:24.960Z,63.00
2023-02-14T00:15:15.199Z,63.00
2023-02-14T00:15:46.896Z,64.00
2023-02-14T00:16:18.659Z,64.00
2023-02-14T00:16:50.328Z,65.00
2023-02-14T00:17:22.213Z,65.67
2023-02-14T00:17:59.560Z,67.33
2023-02-14T00:18:49.942Z,68.33
2023-02-14T00:19:22.786Z,70.67
2023-02-14T00:19:54.446Z,73.00
2023-02-14T00:20:27.290Z,76.33
2023-02-14T00:21:00.743Z,80.33
2023-02-14T00:21:37.159Z,84.00
2023-02-14T00:22:08.942Z,85.33
2023-02-14T00:22:40.668Z,86.33
2023-02-14T00:23:12.363Z,91.00
2023-02-14T00:23:44.095Z,99.33
2023-02-14T00:24:22.319Z,103.33
2023-02-14T00:24:53.988Z,103.67
2023-02-14T00:25:25.640Z,102.67
2023-02-14T00:25:57.317Z,102.00
2023-02-14T00:26:28.950Z,101.67
2023-02-14T00:27:00.678Z,101.33
2023-02-14T00:27:32.433Z,100.67
2023-02-14T00:28:04.097Z,99.67
2023-02-14T00:28:35.750Z,99.33
2023-02-14T00:29:10.799Z,98.33
2023-02-14T00:29:42.435Z,98.00
2023-02-14T00:30:14.421Z,97.33
2023-02-14T00:30:47.291Z,96.67
2023-02-14T00:31:19.110Z,96.00
2023-02-14T00:31:51.035Z,96.00
2023-02-14T00:32:22.788Z,95.33
2023-02-14T00:32:54.492Z,95.00
2023-02-14T00:33:26.154Z,94.67
2023-02-14T00:33:57.835Z,94.00
2023-02-14T00:34:29.816Z,93.67
2023-02-14T00:35:01.868Z,93.00
2023-02-14T00:35:37.267Z,92.33
2023-02-14T00:36:11.151Z,92.00
2023-02-14T00:36:43.619Z,91.33
2023-02-14T00:37:15.309Z,90.67
2023-02-14T00:37:47.732Z,90.00
2023-02-14T00:38:19.416Z,90.00
2023-02-14T00:38:51.062Z,89.00
2023-02-14T00:39:22.752Z,88.00
2023-02-14T00:39:54.479Z,87.00
2023-02-14T00:40:26.175Z,87.00
2023-02-14T00:40:58.138Z,87.00
2023-02-14T00:41:30.170Z,87.00
2023-02-14T00:42:01.864Z,86.00
2023-02-14T00:42:33.743Z,86.33
2023-02-14T00:43:05.414Z,86.00
2023-02-14T00:43:37.055Z,86.00
2023-02-14T00:44:10.628Z,86.00
2023-02-14T00:44:42.739Z,86.00
2023-02-14T00:45:14.607Z,86.00
2023-02-14T00:45:46.305Z,86.00
2023-02-14T00:46:19.683Z,86.00
2023-02-14T00:46:51.404Z,86.00
2023-02-14T00:47:23.064Z,86.00
2023-02-14T00:47:54.741Z,86.00
2023-02-14T00:48:26.496Z,86.00
2023-02-14T00:48:58.158Z,86.00
2023-02-14T00:49:29.823Z,86.00
2023-02-14T00:50:03.030Z,85.00
2023-02-14T00:50:34.759Z,85.00
2023-02-14T00:51:06.455Z,84.67
2023-02-14T00:51:39.305Z,84.00
2023-02-14T00:52:11.037Z,84.00
2023-02-14T00:52:42.700Z,83.00
2023-02-14T00:53:14.873Z,83.00
2023-02-14T00:53:48.899Z,83.00
2023-02-14T00:54:20.643Z,83.33
2023-02-14T00:54:52.298Z,84.33
2023-02-14T00:55:23.940Z,87.67
2023-02-14T00:55:55.643Z,95.67
2023-02-14T00:56:27.606Z,107.67
2023-02-14T00:56:59.619Z,114.33
2023-02-14T00:57:31.264Z,121.67
2023-02-14T00:58:02.926Z,130.00
2023-02-14T00:58:34.625Z,134.33
2023-02-14T00:59:06.297Z,137.00
2023-02-14T00:59:38.023Z,141.33
2023-02-14T01:00:10.249Z,147.33
2023-02-14T01:00:41.964Z,145.67
2023-02-14T01:01:15.459Z,145.00
2023-02-14T01:01:47.212Z,141.33
2023-02-14T01:02:18.984Z,137.33
2023-02-14T01:02:50.743Z,131.67
2023-02-14T01:03:22.617Z,129.00
2023-02-14T01:03:54.662Z,127.33
2023-02-14T01:04:26.365Z,125.67
2023-02-14T01:04:58.047Z,124.67
2023-02-14T01:05:29.678Z,123.33
2023-02-14T01:06:02.048Z,121.67
2023-02-14T01:06:33.918Z,119.33
2023-02-14T01:07:05.575Z,118.00
2023-02-14T01:07:37.216Z,116.33
2023-02-14T01:08:08.861Z,114.33
2023-02-14T01:08:40.564Z,113.00
2023-02-14T01:09:12.278Z,112.33
2023-02-14T01:09:43.985Z,111.00
2023-02-14T01:10:15.655Z,110.33
2023-02-14T01:10:47.388Z,109.00
2023-02-14T01:11:21.392Z,108.00
2023-02-14T01:11:53.170Z,107.67
2023-02-14T01:12:24.846Z,108.00
2023-02-14T01:12:56.784Z,107.00
2023-02-14T01:13:28.429Z,107.00
2023-02-14T01:14:00.244Z,107.00
2023-02-14T01:14:31.871Z,107.00
2023-02-14T01:15:03.763Z,107.00
2023-02-14T01:15:42.811Z,106.33
2023-02-14T01:16:18.238Z,106.33
2023-02-14T01:16:50.055Z,106.33
2023-02-14T01:17:21.773Z,105.67
2023-02-14T01:17:53.423Z,104.67
2023-02-14T01:18:25.084Z,104.00
2023-02-14T01:18:58.365Z,103.33
2023-02-14T01:19:30.089Z,102.67
2023-02-14T01:20:01.779Z,102.00
2023-02-14T01:20:33.987Z,103.00
2023-02-14T01:21:25.058Z,103.00
2023-02-14T01:21:56.847Z,105.33
2023-02-14T01:22:28.511Z,107.00
2023-02-14T01:23:00.265Z,112.33
2023-02-14T01:23:31.927Z,119.00
2023-02-14T01:24:06.777Z,127.33
2023-02-14T01:24:38.440Z,154.00
2023-02-14T01:25:10.135Z,171.33
2023-02-14T01:25:41.888Z,180.00
2023-02-14T01:26:13.745Z,181.67
2023-02-14T01:26:45.571Z,183.33
2023-02-14T01:27:17.266Z,176.00
2023-02-14T01:27:49.028Z,166.67
2023-02-14T01:28:20.676Z,158.67
2023-02-14T01:28:52.494Z,153.00
2023-02-14T01:29:24.180Z,150.33
2023-02-14T01:29:55.852Z,148.67
2023-02-14T01:30:27.720Z,147.33
2023-02-14T01:31:10.380Z,147.00
2023-02-14T01:31:42.374Z,146.00
2023-02-14T01:32:14.121Z,145.00
2023-02-14T01:32:46.066Z,144.67
2023-02-14T01:33:17.747Z,143.00
2023-02-14T01:33:50.856Z,140.00
2023-02-14T01:34:22.830Z,138.33
2023-02-14T01:34:54.491Z,137.33
2023-02-14T01:35:26.177Z,137.00
2023-02-14T01:35:58.430Z,137.00
2023-02-14T01:36:36.810Z,137.00
2023-02-14T01:37:08.550Z,136.33
2023-02-14T01:37:40.220Z,136.00
2023-02-14T01:38:11.905Z,135.00
2023-02-14T01:38:43.593Z,133.67
2023-02-14T01:39:15.642Z,133.00
2023-02-14T01:39:47.289Z,133.00
2023-02-14T01:40:19.086Z,133.00
2023-02-14T01:40:51.091Z,133.00
2023-02-14T01:41:24.853Z,134.00
2023-02-14T01:41:56.666Z,134.00
2023-02-14T01:42:29.251Z,134.00
2023-02-14T01:43:00.896Z,134.00
2023-02-14T01:43:32.560Z,134.00
2023-02-14T01:44:07.570Z,134.00
2023-02-14T01:44:39.134Z,133.33
2023-02-14T01:45:26.717Z,133.00
2023-02-14T01:45:58.446Z,132.00
2023-02-14T01:46:33.321Z,132.33
2023-02-14T01:47:10.118Z,132.67
2023-02-14T01:47:44.779Z,134.33
2023-02-14T01:48:21.013Z,135.00
2023-02-14T01:48:58.477Z,134.33
2023-02-14T01:49:40.883Z,132.33
2023-02-14T01:50:22.537Z,126.67
2023-02-14T01:50:54.907Z,118.67
2023-02-14T01:51:27.008Z,113.67
2023-02-14T01:52:08.600Z,106.67
2023-02-14T01:53:03.309Z,99.00
2023-02-14T01:53:35.032Z,94.67
2023-02-14T01:54:09.199Z,92.67
2023-02-14T01:54:47.862Z,91.67
2023-02-14T01:55:23.875Z,90.33
2023-02-14T01:56:08.142Z,93.67
2023-02-14T01:56:49.909Z,96.00
2023-02-14T01:57:26.736Z,100.00
2023-02-14T01:58:29.347Z,101.67
2023-02-14T01:59:05.644Z,105.00
2023-02-14T01:59:44.109Z,107.00
2023-02-14T02:00:34.932Z,110.00
2023-02-14T02:01:07.118Z,112.00
2023-02-14T02:01:40.161Z,112.00
2023-02-14T02:02:12.327Z,111.33
2023-02-14T02:02:44.381Z,110.33
2023-02-14T02:03:17.648Z,109.00
2023-02-14T02:03:54.304Z,108.67
2023-02-14T02:04:34.391Z,107.67
2023-02-14T02:05:06.258Z,106.00
2023-02-14T02:05:44.627Z,102.67
2023-02-14T02:06:23.835Z,98.33
2023-02-14T02:07:09.925Z,93.67
2023-02-14T02:07:42.286Z,91.33
2023-02-14T02:08:14.408Z,90.33
2023-02-14T02:09:02.537Z,90.33
2023-02-14T02:09:54.534Z,91.00
2023-02-14T02:10:26.515Z,92.33
2023-02-14T02:10:58.536Z,93.00
2023-02-14T02:11:30.637Z,94.00
2023-02-14T02:12:03.333Z,94.67
2023-02-14T02:12:35.730Z,95.00
2023-02-14T02:13:09.551Z,95.00
2023-02-14T02:13:41.197Z,96.00
2023-02-14T02:14:21.600Z,96.00
2023-02-14T02:14:56.832Z,96.00
2023-02-14T02:15:36.573Z,95.33
2023-02-14T02:16:22.125Z,94.33
2023-02-14T02:17:21.094Z,91.33
2023-02-14T02:18:03.540Z,89.33
2023-02-14T02:18:51.162Z,87.67
2023-02-14T02:19:50.255Z,86.00
2023-02-14T02:20:21.880Z,83.00
2023-02-14T02:21:32.828Z,81.33
2023-02-14T02:22:23.178Z,79.67
2023-02-14T02:23:08.807Z,78.33
2023-02-14T02:24:00.381Z,77.33
2023-02-14T02:24:34.969Z,77.67
2023-02-14T02:25:25.033Z,77.33
2023-02-14T02:26:54.704Z,77.00
2023-02-14T02:27:44.916Z,75.67
2023-02-14T02:28:53.938Z,75.00
2023-02-14T02:29:56.013Z,75.67
2023-02-14T02:31:01.159Z,76.00
2023-02-14T02:32:08.186Z,76.00
2023-02-14T02:32:54.171Z,76.00
2023-02-14T02:33:46.475Z,76.00
2023-02-14T02:34:35.131Z,75.00
2023-02-14T02:35:58.335Z,75.00
2023-02-14T02:36:55.369Z,74.33
2023-02-14T02:37:35.831Z,75.00
2023-02-14T02:38:39.713Z,75.00
2023-02-14T02:39:31.323Z,76.00
2023-02-14T02:40:33.817Z,77.00
2023-02-14T02:41:24.123Z,77.67
2023-02-14T02:41:58.624Z,78.00
2023-02-14T02:42:57.688Z,78.00
2023-02-14T02:43:38.513Z,78.00
2023-02-14T02:44:29.974Z,78.00
2023-02-14T02:45:26.192Z,78.00
2023-02-14T02:46:27.075Z,78.00
2023-02-14T02:47:06.730Z,78.00
2023-02-14T02:48:13.652Z,79.00
2023-02-14T02:48:56.547Z,80.00
2023-02-14T02:50:05.869Z,81.00
2023-02-14T02:51:02.054Z,81.00
2023-02-14T02:51:58.076Z,81.00
2023-02-14T02:53:04.344Z,81.00
2023-02-14T02:54:01.937Z,81.00
2023-02-14T02:54:48.514Z,81.67
2023-02-14T02:55:25.780Z,82.00
2023-02-14T02:56:47.098Z,82.00
2023-02-14T02:57:32.490Z,82.00
2023-02-14T02:58:05.086Z,82.00
2023-02-14T02:58:42.918Z,82.00
2023-02-14T02:59:28.505Z,82.00
2023-02-14T03:00:04.210Z,82.00
2023-02-14T03:00:36.296Z,82.00
2023-02-14T03:01:16.716Z,82.00
2023-02-14T03:02:14.696Z,82.00
2023-02-14T03:03:10.323Z,81.67
2023-02-14T03:04:05.447Z,81.67
2023-02-14T03:04:54.406Z,82.00
2023-02-14T03:05:29.264Z,82.00
2023-02-14T03:06:02.288Z,82.00
2023-02-14T03:06:34.754Z,82.33
2023-02-14T03:07:26.999Z,83.00
2023-02-14T03:07:58.695Z,83.00
2023-02-14T03:08:30.377Z,83.00
2023-02-14T03:09:34.813Z,83.00
2023-02-14T03:10:06.729Z,83.00
2023-02-14T03:10:39.763Z,83.00
2023-02-14T03:11:13.295Z,83.00
2023-02-14T03:12:08.053Z,83.00
2023-02-14T03:12:54.543Z,83.00
2023-02-14T03:13:54.274Z,83.00
2023-02-14T03:14:50.544Z,83.00
2023-02-14T03:15:28.101Z,82.00
2023-02-14T03:16:05.328Z,83.00
2023-02-14T03:16:59.198Z,83.00
2023-02-14T03:18:32.214Z,83.00
2023-02-14T03:19:47.112Z,82.00
2023-02-14T03:20:39.788Z,82.00
2023-02-14T03:21:31.223Z,82.00
2023-02-14T03:22:22.427Z,83.00
2023-02-14T03:23:13.254Z,84.00
2023-02-14T03:23:57.067Z,85.00
2023-02-14T03:24:47.408Z,86.00
2023-02-14T03:25:40.352Z,86.00
2023-02-14T03:26:27.372Z,87.00
2023-02-14T03:27:27.150Z,87.00
2023-02-14T03:28:31.780Z,87.33
2023-02-14T03:29:16.082Z,90.00
2023-02-14T03:29:59.842Z,96.33
2023-02-14T03:30:42.211Z,108.00
2023-02-14T03:31:44.840Z,113.00
2023-02-14T03:32:34.272Z,123.67
2023-02-14T03:33:34.301Z,137.33
2023-02-14T03:34:15.238Z,157.67
2023-02-14T03:35:04.063Z,165.67
2023-02-14T03:35:51.893Z,164.67
2023-02-14T03:36:35.122Z,162.33
2023-02-14T03:37:19.136Z,164.00
2023-02-14T03:38:16.776Z,171.33
2023-02-14T03:39:08.908Z,173.33
2023-02-14T03:40:04.599Z,176.33
2023-02-14T03:40:42.486Z,167.00
2023-02-14T03:41:41.607Z,156.33
2023-02-14T03:42:21.443Z,152.67
2023-02-14T03:43:02.005Z,150.00
2023-02-14T03:43:42.927Z,140.33
2023-02-14T03:44:21.133Z,127.67
2023-02-14T03:44:56.725Z,122.33
2023-02-14T03:45:42.827Z,120.67
2023-02-14T03:46:32.557Z,118.00
2023-02-14T03:47:09.714Z,119.00
2023-02-14T03:47:44.769Z,116.67
2023-02-14T03:48:19.744Z,111.00
2023-02-14T03:48:56.468Z,107.33
2023-02-14T03:49:34.065Z,103.67
2023-02-14T03:50:11.218Z,101.00
2023-02-14T03:50:46.905Z,96.00
2023-02-14T03:51:21.688Z,96.33
2023-02-14T03:51:56.437Z,96.00
2023-02-14T03:52:31.026Z,92.67
2023-02-14T03:53:05.465Z,91.67
2023-02-14T03:53:43.785Z,93.00
2023-02-14T03:54:19.558Z,94.33
2023-02-14T03:54:56.540Z,93.33
2023-02-14T03:55:38.917Z,90.33
2023-02-14T03:56:38.415Z,89.00
2023-02-14T03:57:23.971Z,88.00
2023-02-14T03:58:14.408Z,85.67
2023-02-14T03:58:51.701Z,83.00
2023-02-14T03:59:29.068Z,82.00
2023-02-14T04:00:00.970Z,77.67
2023-02-14T04:00:38.802Z,76.00
2023-02-14T04:01:36.376Z,73.33
2023-02-14T04:02:29.832Z,74.67
2023-02-14T04:03:11.851Z,72.00
2023-02-14T04:03:44.830Z,72.33
2023-02-14T04:04:22.595Z,72.00
2023-02-14T04:04:56.614Z,70.00
2023-02-14T04:05:28.884Z,70.00
2023-02-14T04:06:00.970Z,69.33
2023-02-14T04:06:32.775Z,69.33
2023-02-14T04:07:14.451Z,69.67
2023-02-14T04:07:52.040Z,71.00
2023-02-14T04:08:27.901Z,71.33
2023-02-14T04:08:59.582Z,72.00
2023-02-14T04:09:31.293Z,72.67
2023-02-14T04:10:02.983Z,73.00
2023-02-14T04:10:34.666Z,74.00
2023-02-14T04:11:06.940Z,74.33
2023-02-14T04:11:39.045Z,75.00
2023-02-14T04:12:11.565Z,75.00
2023-02-14T04:12:43.539Z,75.00
2023-02-14T04:13:15.215Z,75.00
2023-02-14T04:13:46.994Z,74.33
2023-02-14T04:14:18.681Z,74.00
2023-02-14T04:14:50.407Z,74.00
2023-02-14T04:15:22.307Z,74.33
2023-02-14T04:15:54.016Z,77.00
2023-02-14T04:16:25.780Z,84.00
2023-02-14T04:17:15.894Z,91.67
2023-02-14T04:18:06.298Z,98.00
2023-02-14T04:18:56.877Z,100.00
2023-02-14T04:19:28.663Z,100.00
2023-02-14T04:20:00.363Z,98.67
2023-02-14T04:20:32.115Z,97.33
2023-02-14T04:21:04.008Z,96.67
2023-02-14T04:21:35.669Z,96.00
2023-02-14T04:22:07.301Z,96.00
2023-02-14T04:22:38.993Z,96.67
2023-02-14T04:23:10.655Z,101.00
2023-02-14T04:23:42.615Z,106.33
2023-02-14T04:24:14.284Z,109.00
2023-02-14T04:24:47.407Z,111.00
2023-02-14T04:25:21.022Z,116.00
2023-02-14T04:25:52.851Z,122.00
2023-02-14T04:26:24.610Z,131.00
2023-02-14T04:27:11.328Z,135.67
2023-02-14T04:27:43.609Z,133.67
2023-02-14T04:28:16.515Z,138.00
2023-02-14T04:28:48.243Z,137.33
2023-02-14T04:29:21.308Z,135.00
2023-02-14T04:29:53.000Z,131.00
2023-02-14T04:30:25.161Z,127.33
2023-02-14T04:30:57.154Z,125.33
2023-02-14T04:31:29.066Z,123.33
2023-02-14T04:32:00.894Z,121.67
2023-02-14T04:32:32.649Z,116.67
2023-02-14T04:33:04.449Z,107.00
2023-02-14T04:33:36.127Z,97.00
2023-02-14T04:34:07.728Z,90.33
2023-02-14T04:34:39.474Z,86.67
2023-02-14T04:35:11.532Z,84.33
2023-02-14T04:35:43.264Z,84.00
2023-02-14T04:36:14.953Z,83.67
2023-02-14T04:36:46.688Z,81.67
2023-02-14T04:37:20.112Z,82.00
2023-02-14T04:37:51.766Z,82.00
2023-02-14T04:38:23.464Z,83.33
2023-02-14T04:38:55.198Z,86.33
2023-02-14T04:39:27.032Z,102.67
2023-02-14T04:39:58.740Z,131.00
2023-02-14T04:40:30.927Z,146.67
2023-02-14T04:41:03.105Z,156.67
2023-02-14T04:41:34.838Z,161.67
2023-02-14T04:42:06.892Z,165.00
2023-02-14T04:42:38.674Z,165.67
2023-02-14T04:43:10.353Z,166.67
2023-02-14T04:43:41.977Z,170.00
2023-02-14T04:44:13.677Z,178.67
2023-02-14T04:44:45.359Z,186.33
2023-02-14T04:45:17.164Z,191.67
2023-02-14T04:45:48.827Z,197.00
2023-02-14T04:46:20.518Z,195.67
2023-02-14T04:46:52.378Z,196.00
2023-02-14T04:47:24.107Z,191.33
2023-02-14T04:47:55.811Z,185.33
2023-02-14T04:48:27.461Z,178.67
2023-02-14T04:48:59.334Z,172.67
2023-02-14T04:49:31.496Z,168.00
2023-02-14T04:50:04.118Z,165.67
2023-02-14T04:50:35.786Z,162.00
2023-02-14T04:51:07.442Z,156.33
2023-02-14T04:51:39.079Z,147.00
2023-02-14T04:52:10.778Z,136.00
2023-02-14T04:52:42.464Z,122.67
2023-02-14T04:53:14.145Z,114.00
2023-02-14T04:53:45.795Z,111.67
2023-02-14T04:54:17.474Z,121.00
2023-02-14T04:54:49.249Z,128.00
2023-02-14T04:55:20.976Z,130.00
2023-02-14T04:55:52.676Z,133.00
2023-02-14T04:56:26.078Z,141.00
2023-02-14T04:56:57.865Z,147.00
2023-02-14T04:57:29.502Z,149.67
2023-02-14T04:58:01.177Z,150.00
2023-02-14T04:58:32.935Z,149.33
2023-02-14T04:59:04.969Z,149.00
2023-02-14T04:59:36.670Z,149.00
2023-02-14T05:00:09.405Z,148.33
2023-02-14T05:00:41.099Z,144.00
2023-02-14T05:01:12.799Z,135.00
2023-02-14T05:01:44.618Z,130.00
2023-02-14T05:02:16.332Z,125.00
2023-02-14T05:02:47.994Z,122.67
2023-02-14T05:03:19.668Z,118.67
2023-02-14T05:03:51.428Z,119.00
2023-02-14T05:04:23.187Z,123.67
2023-02-14T05:04:54.917Z,125.33
2023-02-14T05:05:26.665Z,126.33
2023-02-14T05:05:58.359Z,127.00
2023-02-14T05:06:30.116Z,128.00
2023-02-14T05:07:01.806Z,128.00
2023-02-14T05:07:33.462Z,129.00
2023-02-14T05:08:05.202Z,129.67
2023-02-14T05:08:36.965Z,130.33
2023-02-14T05:09:08.888Z,131.00
2023-02-14T05:09:40.556Z,131.00
2023-02-14T05:10:12.278Z,130.67
2023-02-14T05:10:44.084Z,130.00
2023-02-14T05:11:15.903Z,129.00
2023-02-14T05:11:47.603Z,127.00
2023-02-14T05:12:19.323Z,124.00
2023-02-14T05:12:50.971Z,120.00
2023-02-14T05:13:22.997Z,113.67
2023-02-14T05:13:54.999Z,108.33
2023-02-14T05:14:26.748Z,106.33
2023-02-14T05:14:58.451Z,102.00
2023-02-14T05:15:30.137Z,99.33
2023-02-14T05:16:01.894Z,97.00
2023-02-14T05:16:33.813Z,93.67
2023-02-14T05:17:05.498Z,93.67
2023-02-14T05:17:37.364Z,93.33
2023-02-14T05:18:09.034Z,91.67
2023-02-14T05:18:40.727Z,89.33
2023-02-14T05:19:12.436Z,88.00
2023-02-14T05:19:44.108Z,88.67
2023-02-14T05:20:15.800Z,83.33
2023-02-14T05:20:52.179Z,84.00
2023-02-14T05:21:23.894Z,84.00
2023-02-14T05:21:55.585Z,84.33
2023-02-14T05:22:27.283Z,86.00
2023-02-14T05:23:03.344Z,86.00
2023-02-14T05:23:34.980Z,86.33
2023-02-14T05:24:06.941Z,87.00
2023-02-14T05:24:39.044Z,87.67
2023-02-14T05:25:10.694Z,88.33
2023-02-14T05:25:43.116Z,89.33
2023-02-14T05:26:14.892Z,90.00
2023-02-14T05:26:46.650Z,90.67
2023-02-14T05:27:18.317Z,91.00
2023-02-14T05:27:49.978Z,92.00
2023-02-14T05:28:21.679Z,92.00
2023-02-14T05:28:53.477Z,93.00
2023-02-14T05:29:25.206Z,93.00
2023-02-14T05:29:56.914Z,94.00
2023-02-14T05:30:30.219Z,94.33
2023-02-14T05:31:02.452Z,95.33
2023-02-14T05:31:34.842Z,96.67
2023-02-14T05:32:06.822Z,97.67
2023-02-14T05:32:38.500Z,98.67
2023-02-14T05:33:10.341Z,100.00
2023-02-14T05:33:42.190Z,100.00
2023-02-14T05:34:13.912Z,101.00
2023-02-14T05:34:45.561Z,101.00
2023-02-14T05:35:17.315Z,102.00
2023-02-14T05:35:49.020Z,102.67
2023-02-14T05:36:21.867Z,104.00
2023-02-14T05:36:54.941Z,105.33
2023-02-14T05:37:26.596Z,106.00
2023-02-14T05:37:58.457Z,107.00
2023-02-14T05:38:30.940Z,109.33
2023-02-14T05:39:02.718Z,115.67
2023-02-14T05:39:34.437Z,121.33
2023-02-14T05:40:07.522Z,125.33
2023-02-14T05:40:39.501Z,126.33
2023-02-14T05:41:11.186Z,125.67
2023-02-14T05:41:42.890Z,127.67
2023-02-14T05:42:14.586Z,128.33
2023-02-14T05:42:46.272Z,129.00
2023-02-14T05:43:17.966Z,131.33
2023-02-14T05:43:49.674Z,131.67
2023-02-14T05:44:21.409Z,129.00
2023-02-14T05:44:53.046Z,128.00
2023-02-14T05:45:24.848Z,127.33
2023-02-14T05:45:57.741Z,126.67
2023-02-14T05:46:29.449Z,126.00
2023-02-14T05:47:01.071Z,125.67
2023-02-14T05:47:32.947Z,125.00
2023-02-14T05:48:06.148Z,124.67
2023-02-14T05:48:37.983Z,124.00
2023-02-14T05:49:09.702Z,124.00
2023-02-14T05:49:41.373Z,124.00
2023-02-14T05:50:13.119Z,123.00
2023-02-14T05:50:45.640Z,123.00
2023-02-14T05:51:17.312Z,122.00
2023-02-14T05:51:48.962Z,121.67
2023-02-14T05:52:20.607Z,121.00
2023-02-14T05:52:52.277Z,120.00
2023-02-14T05:53:23.951Z,122.67
2023-02-14T05:53:57.816Z,131.33
2023-02-14T05:54:29.499Z,141.00
2023-02-14T05:55:01.202Z,153.00
2023-02-14T05:55:32.852Z,165.00
2023-02-14T05:56:05.242Z,174.00
2023-02-14T05:56:36.979Z,177.00
2023-02-14T05:57:08.615Z,173.67
2023-02-14T05:57:40.295Z,172.00
2023-02-14T05:58:12.649Z,173.33
2023-02-14T05:58:44.331Z,175.33
2023-02-14T05:59:16.024Z,174.67
2023-02-14T05:59:47.660Z,180.33
2023-02-14T06:00:20.018Z,187.00
2023-02-14T06:00:51.852Z,196.00
2023-02-14T06:01:23.513Z,208.00
2023-02-14T06:01:55.172Z,222.00
2023-02-14T06:02:26.999Z,226.00
2023-02-14T06:02:58.706Z,212.67
2023-02-14T06:03:30.365Z,188.00
2023-02-14T06:04:02.111Z,181.00
2023-02-14T06:04:34.084Z,173.67
2023-02-14T06:05:06.337Z,157.00
2023-02-14T06:05:37.976Z,144.00
2023-02-14T06:06:09.679Z,137.33
2023-02-14T06:06:41.338Z,136.33
2023-02-14T06:07:13.138Z,141.67
2023-02-14T06:07:50.474Z,146.67
2023-02-14T06:08:22.386Z,170.67
2023-02-14T06:08:54.105Z,202.33
2023-02-14T06:09:25.864Z,215.67
2023-02-14T06:09:57.514Z,226.00
2023-02-14T06:10:29.164Z,237.00
2023-02-14T06:11:01.218Z,244.33
2023-02-14T06:11:33.093Z,248.67
2023-02-14T06:12:05.046Z,247.67
2023-02-14T06:12:36.710Z,247.00
2023-02-14T06:13:09.001Z,244.33
2023-02-14T06:13:41.592Z,236.67
2023-02-14T06:14:13.569Z,237.00
2023-02-14T06:14:45.259Z,234.67
2023-02-14T06:15:17.229Z,233.00
2023-02-14T06:15:48.925Z,229.00
2023-02-14T06:16:20.610Z,223.33
2023-02-14T06:16:52.709Z,220.00
2023-02-14T06:17:24.384Z,217.67
2023-02-14T06:17:57.502Z,213.00
2023-02-14T06:18:29.719Z,194.00
2023-02-14T06:19:01.468Z,173.00
2023-02-14T06:19:33.157Z,160.33
2023-02-14T06:20:05.577Z,154.67
2023-02-14T06:20:37.270Z,153.67
2023-02-14T06:21:08.934Z,148.00
2023-02-14T06:21:40.597Z,144.00
2023-02-14T06:22:12.263Z,140.33
2023-02-14T06:22:43.928Z,139.33
2023-02-14T06:23:15.590Z,134.33
2023-02-14T06:23:47.273Z,128.67
2023-02-14T06:24:18.966Z,127.33
2023-02-14T06:24:50.647Z,125.67
2023-02-14T06:25:23.693Z,122.00
2023-02-14T06:25:55.354Z,118.67
2023-02-14T06:26:27.942Z,114.00
2023-02-14T06:26:59.986Z,111.67
2023-02-14T06:27:32.841Z,113.33
2023-02-14T06:28:04.668Z,176.67
2023-02-14T06:28:36.324Z,361.00
2023-02-14T06:29:07.993Z,367.67
2023-02-14T06:29:39.626Z,310.00
2023-02-14T06:30:12.146Z,281.00
2023-02-14T06:30:44.026Z,262.33
2023-02-14T06:31:17.522Z,254.67
2023-02-14T06:31:49.396Z,245.67
2023-02-14T06:32:21.341Z,245.33
2023-02-14T06:32:53.011Z,276.67
2023-02-14T06:33:24.675Z,272.67
2023-02-14T06:33:56.369Z,247.67
2023-02-14T06:34:28.013Z,217.33
2023-02-14T06:34:59.710Z,170.67
2023-02-14T06:35:31.327Z,144.00
2023-02-14T06:36:03.024Z,133.67
2023-02-14T06:36:34.730Z,122.33
2023-02-14T06:37:07.174Z,113.33
2023-02-14T06:37:41.277Z,110.00
2023-02-14T06:38:12.966Z,220.33
2023-02-14T06:38:45.039Z,432.00
2023-02-14T06:39:16.721Z,482.67
2023-02-14T06:39:48.494Z,490.67
2023-02-14T06:40:20.442Z,475.67
2023-02-14T06:40:52.108Z,418.67
2023-02-14T06:41:23.816Z,318.00
2023-02-14T06:41:55.506Z,266.00
2023-02-14T06:42:27.327Z,216.33
2023-02-14T06:42:58.977Z,189.67
2023-02-14T06:43:30.624Z,174.33
2023-02-14T06:44:02.277Z,163.00
2023-02-14T06:44:33.967Z,156.67
2023-02-14T06:45:06.699Z,153.00
2023-02-14T06:45:38.397Z,146.67
2023-02-14T06:46:11.161Z,141.67
2023-02-14T06:46:42.911Z,139.00
2023-02-14T06:47:14.618Z,136.67
2023-02-14T06:47:46.449Z,135.00
2023-02-14T06:48:18.102Z,129.33
2023-02-14T06:48:49.848Z,126.33
2023-02-14T06:49:21.550Z,124.33
2023-02-14T06:49:53.202Z,125.33
2023-02-14T06:50:24.860Z,123.00
2023-02-14T06:50:56.529Z,119.00
2023-02-14T06:51:28.249Z,115.33
2023-02-14T06:52:00.007Z,114.67
2023-02-14T06:52:32.902Z,113.67
2023-02-14T06:53:04.602Z,110.67
2023-02-14T06:53:36.684Z,110.33
2023-02-14T06:54:08.382Z,109.33
2023-02-14T06:54:40.391Z,107.00
2023-02-14T06:55:13.904Z,107.33
2023-02-14T06:55:45.878Z,104.33
2023-02-14T06:56:18.066Z,102.67
2023-02-14T06:56:49.827Z,101.00
2023-02-14T06:57:21.519Z,100.33
2023-02-14T06:57:53.397Z,100.33
2023-02-14T06:58:25.140Z,102.33
2023-02-14T06:58:56.841Z,102.67
2023-02-14T06:59:28.545Z,103.00
2023-02-14T07:00:00.258Z,101.33
2023-02-14T07:00:31.924Z,100.33
2023-02-14T07:01:03.742Z,101.67
2023-02-14T07:01:35.431Z,102.33
2023-02-14T07:02:07.257Z,100.67
2023-02-14T07:02:38.983Z,103.33
2023-02-14T07:03:10.809Z,104.33
2023-02-14T07:03:43.401Z,105.67
2023-02-14T07:04:15.142Z,106.00
2023-02-14T07:04:46.882Z,105.67
2023-02-14T07:05:19.200Z,102.33
2023-02-14T07:05:51.898Z,101.00
2023-02-14T07:06:23.798Z,101.33
2023-02-14T07:06:55.500Z,102.67
2023-02-14T07:07:27.176Z,103.67
2023-02-14T07:07:59.227Z,104.00
2023-02-14T07:08:30.944Z,105.00
2023-02-14T07:09:02.900Z,105.67
2023-02-14T07:09:34.639Z,107.00
2023-02-14T07:10:06.985Z,109.67
2023-02-14T07:10:38.766Z,111.33
2023-02-14T07:11:10.444Z,113.33
2023-02-14T07:11:42.100Z,115.67
2023-02-14T07:12:13.858Z,117.33
2023-02-14T07:12:45.524Z,118.00
2023-02-14T07:13:17.222Z,118.00
2023-02-14T07:13:49.583Z,118.00
2023-02-14T07:14:21.369Z,117.67
2023-02-14T07:14:53.077Z,117.00
2023-02-14T07:15:24.740Z,116.00
2023-02-14T07:15:57.204Z,115.67
2023-02-14T07:16:28.903Z,116.00
2023-02-14T07:17:00.638Z,115.67
2023-02-14T07:17:32.263Z,116.33
2023-02-14T07:18:04.026Z,117.00
2023-02-14T07:18:35.878Z,117.00
2023-02-14T07:19:07.532Z,117.33
2023-02-14T07:19:39.263Z,118.00
2023-02-14T07:20:12.583Z,118.00
2023-02-14T07:20:45.064Z,118.00
2023-02-14T07:21:16.825Z,118.00
2023-02-14T07:21:48.483Z,119.00
2023-02-14T07:22:20.130Z,119.00
2023-02-14T07:22:52.040Z,119.33
2023-02-14T07:23:23.766Z,120.67
2023-02-14T07:23:55.741Z,185.00
2023-02-14T07:24:27.590Z,340.33
2023-02-14T07:24:59.489Z,267.67
2023-02-14T07:25:31.432Z,208.00
2023-02-14T07:26:03.307Z,183.00
2023-02-14T07:26:35.283Z,169.67
2023-02-14T07:27:06.992Z,166.00
2023-02-14T07:27:39.447Z,164.33
2023-02-14T07:28:11.130Z,163.33
2023-02-14T07:28:44.924Z,162.33